West Franklin, New Hampshire
Current Conditions -  °F | °C
As of 11:15 PM on Wednesday 17 Dec 2014 (Local Time) from KLCI Reporting Station
Overcast Overcast  
Wind Chill: 33°   Ceiling: 5500
Heat Index: 39°   Visibility: 10mi
Dew Point: 34°   Wind: 9mph
Humidity: 81%   Direction: 250°WSW
Pressure: 29.67"   Gusts: NA
Location:  43.4435°N, 71.6697°W
Report Text: KLCI 180415Z AUTO 25008KT 10SM OVC055 04/01 A2967 RMK AO1
Loading
Personal Weather Stations






























Interactive Weather Map New forecast layout! Learn more

10-Day Weather Forecast

Advertisements
Track Severe Weather on mobile